Time;durP1;ratioP1;P1;durP2;ratioP2;P2;SDS_P1;SDS_P2;PMS_P1;PMS_P2;Temp;Humidity;BMP_temperature;BMP_pressure;BME280_temperature;BME280_humidity;BME280_pressure;Samples;Min_cycle;Max_cycle;Signal;HPM_P1;HPM_P2
2022/04/24 00:01:07;;;;;;;0.20;0.20;;;8.20;99.90;;;;;;5068149;28;20213;-83
2022/04/24 00:03:33;;;;;;;0.30;0.30;;;8.20;99.90;;;;;;5067531;28;20684;-83
2022/04/24 00:05:59;;;;;;;0.30;0.30;;;8.20;99.90;;;;;;5075207;28;20439;-83
2022/04/24 00:08:25;;;;;;;0.20;0.20;;;8.20;99.90;;;;;;5063953;28;20609;-83
2022/04/24 00:10:50;;;;;;;0.30;0.30;;;8.10;99.90;;;;;;5072395;28;20195;-83
2022/04/24 00:13:16;;;;;;;0.30;0.30;;;8.00;99.90;;;;;;5077029;28;20236;-82
2022/04/24 00:15:42;;;;;;;0.30;0.30;;;8.00;99.90;;;;;;5067883;28;20182;-83
2022/04/24 00:18:08;;;;;;;0.30;0.30;;;8.10;99.90;;;;;;5072167;28;20490;-83
2022/04/24 00:20:34;;;;;;;0.30;0.30;;;8.10;99.90;;;;;;5067656;28;20635;-82
2022/04/24 00:22:59;;;;;;;0.30;0.30;;;8.10;99.90;;;;;;5065773;28;20249;-83
2022/04/24 00:25:25;;;;;;;0.30;0.30;;;8.00;99.90;;;;;;5075832;28;20500;-82
2022/04/24 00:27:50;;;;;;;0.40;0.40;;;8.00;99.90;;;;;;5076877;28;20288;-83
2022/04/24 00:30:16;;;;;;;0.40;0.40;;;7.90;99.90;;;;;;5070285;28;20209;-82
2022/04/24 00:32:42;;;;;;;0.50;0.50;;;7.90;99.90;;;;;;5067964;28;20297;-83
2022/04/24 00:35:08;;;;;;;0.37;0.37;;;7.90;99.90;;;;;;5074204;28;20182;-83
2022/04/24 00:37:33;;;;;;;0.50;0.50;;;7.90;99.90;;;;;;5087095;28;20569;-82
2022/04/24 00:39:59;;;;;;;0.47;0.47;;;7.90;99.90;;;;;;5066482;28;20529;-83
2022/04/24 00:42:24;;;;;;;0.30;0.30;;;7.80;99.90;;;;;;5084781;28;20217;-83
2022/04/24 00:44:50;;;;;;;0.40;0.40;;;7.90;99.90;;;;;;5057753;28;20186;-83
2022/04/24 00:47:17;;;;;;;0.40;0.40;;;7.80;99.90;;;;;;5069848;28;20512;-82
2022/04/24 00:49:46;;;;;;;0.47;0.47;;;7.80;99.90;;;;;;5066014;28;20190;-83
2022/04/24 00:52:13;;;;;;;0.30;0.30;;;7.70;99.90;;;;;;5074962;28;20455;-82
2022/04/24 00:54:40;;;;;;;0.30;0.30;;;7.80;99.90;;;;;;5053091;28;20986;-82
2022/04/24 00:57:06;;;;;;;0.40;0.40;;;7.70;99.90;;;;;;5060669;28;20463;-82
2022/04/24 00:59:32;;;;;;;0.30;0.30;;;7.60;99.90;;;;;;5085596;28;20431;-82
2022/04/24 01:01:59;;;;;;;0.30;0.30;;;7.60;99.90;;;;;;5071658;28;21559;-82
2022/04/24 01:04:24;;;;;;;0.30;0.30;;;7.60;99.90;;;;;;5066097;28;20171;-83
2022/04/24 01:06:50;;;;;;;0.30;0.30;;;7.60;99.90;;;;;;5072732;28;20450;-82
2022/04/24 01:09:21;;;;;;;0.50;0.50;;;7.60;99.90;;;;;;5067945;28;20190;-82
2022/04/24 01:11:50;;;;;;;0.70;0.70;;;7.60;99.90;;;;;;5064849;28;20451;-82
2022/04/24 01:14:16;;;;;;;0.30;0.30;;;7.40;99.90;;;;;;5072109;28;20538;-82
2022/04/24 01:16:42;;;;;;;0.40;0.40;;;7.40;99.90;;;;;;5074884;28;20443;-82
2022/04/24 01:19:08;;;;;;;0.57;0.57;;;7.50;99.90;;;;;;5070537;28;20542;-82
2022/04/24 01:21:35;;;;;;;0.70;0.70;;;7.50;99.90;;;;;;5071276;28;20466;-82
2022/04/24 01:24:04;;;;;;;0.50;0.50;;;7.40;99.90;;;;;;5056968;28;20556;-82
2022/04/24 01:26:29;;;;;;;0.70;0.70;;;7.30;99.90;;;;;;5070587;28;20428;-83
2022/04/24 01:28:55;;;;;;;0.83;0.83;;;7.40;99.90;;;;;;5068122;28;20522;-82
2022/04/24 01:31:20;;;;;;;0.60;0.60;;;7.30;99.90;;;;;;5069731;28;20231;-83
2022/04/24 01:33:46;;;;;;;0.40;0.40;;;7.30;99.90;;;;;;5064630;28;20194;-83
2022/04/24 01:36:12;;;;;;;0.40;0.40;;;7.30;99.90;;;;;;5069446;28;20241;-83
2022/04/24 01:38:37;;;;;;;0.50;0.50;;;7.40;99.90;;;;;;5064030;28;20672;-82
2022/04/24 01:41:03;;;;;;;0.40;0.40;;;7.30;99.90;;;;;;5066958;28;20476;-82
2022/04/24 01:43:28;;;;;;;0.40;0.40;;;7.30;99.90;;;;;;5070201;28;20643;-83
2022/04/24 01:45:54;;;;;;;0.40;0.40;;;7.30;99.90;;;;;;5068311;28;20272;-83
2022/04/24 01:48:20;;;;;;;0.30;0.30;;;7.40;99.90;;;;;;5064652;28;20197;-82
2022/04/24 01:50:45;;;;;;;0.30;0.30;;;7.40;99.90;;;;;;5062803;28;20212;-82
2022/04/24 01:53:11;;;;;;;0.30;0.30;;;7.40;99.90;;;;;;5074977;28;20906;-82
2022/04/24 01:55:37;;;;;;;0.30;0.30;;;7.40;99.90;;;;;;5066956;28;20189;-82
2022/04/24 01:58:02;;;;;;;0.40;0.40;;;7.40;99.90;;;;;;5077165;28;20177;-82
2022/04/24 02:00:29;;;;;;;0.30;0.30;;;7.40;99.90;;;;;;5064191;28;20186;-82
2022/04/24 02:02:55;;;;;;;0.30;0.30;;;7.30;99.90;;;;;;5064445;28;20249;-82
2022/04/24 02:05:21;;;;;;;0.30;0.30;;;7.30;99.90;;;;;;5054188;28;20465;-82
2022/04/24 02:07:46;;;;;;;0.20;0.20;;;7.30;99.90;;;;;;5070597;28;20238;-82
2022/04/24 02:10:12;;;;;;;0.30;0.30;;;7.20;99.90;;;;;;5061725;28;20185;-82
2022/04/24 02:12:40;;;;;;;0.30;0.30;;;7.20;99.90;;;;;;5072510;28;20685;-82
2022/04/24 02:15:07;;;;;;;0.30;0.30;;;7.20;99.90;;;;;;5076027;28;20181;-82
2022/04/24 02:17:34;;;;;;;0.30;0.30;;;7.10;99.90;;;;;;5091203;28;20493;-82
2022/04/24 02:20:00;;;;;;;0.30;0.30;;;7.00;99.90;;;;;;5074213;28;20451;-82
2022/04/24 02:22:33;;;;;;;0.30;0.30;;;7.10;99.90;;;;;;5065156;28;20487;-82
2022/04/24 02:25:00;;;;;;;0.30;0.30;;;7.10;99.90;;;;;;5076662;28;20440;-82
2022/04/24 02:27:25;;;;;;;0.30;0.30;;;7.20;99.90;;;;;;5069042;28;20530;-83
2022/04/24 02:29:51;;;;;;;0.30;0.30;;;7.20;99.90;;;;;;5072744;28;20440;-82
2022/04/24 02:32:16;;;;;;;0.30;0.30;;;7.10;99.90;;;;;;5087914;28;20557;-82
2022/04/24 02:34:42;;;;;;;0.30;0.30;;;7.10;99.90;;;;;;5082278;28;20669;-82
2022/04/24 02:37:08;;;;;;;0.30;0.30;;;7.10;99.90;;;;;;5084392;28;20201;-82
2022/04/24 02:39:33;;;;;;;0.30;0.30;;;7.20;99.90;;;;;;5070057;28;20436;-82
2022/04/24 02:41:59;;;;;;;0.30;0.30;;;7.10;99.90;;;;;;5068571;28;20221;-82
2022/04/24 02:44:24;;;;;;;0.30;0.30;;;7.10;99.90;;;;;;5088625;28;20285;-81
2022/04/24 02:46:50;;;;;;;0.30;0.30;;;7.00;99.90;;;;;;5074846;28;20197;-82
2022/04/24 02:49:15;;;;;;;0.30;0.30;;;7.00;99.90;;;;;;5071434;28;20199;-82
2022/04/24 02:51:41;;;;;;;0.30;0.30;;;7.00;99.90;;;;;;5062146;28;20667;-82
2022/04/24 02:54:06;;;;;;;0.30;0.30;;;7.00;99.90;;;;;;5068182;28;20192;-82
2022/04/24 02:56:32;;;;;;;0.30;0.30;;;6.90;99.90;;;;;;5074633;28;20663;-82
2022/04/24 02:58:57;;;;;;;0.30;0.30;;;7.00;99.90;;;;;;5068397;28;20229;-82
2022/04/24 03:01:23;;;;;;;0.30;0.30;;;6.90;99.90;;;;;;5071833;28;20684;-82
2022/04/24 03:03:49;;;;;;;0.30;0.30;;;6.90;99.90;;;;;;5070594;28;20591;-83
2022/04/24 03:06:16;;;;;;;0.30;0.30;;;6.90;99.90;;;;;;5066531;28;20273;-83
2022/04/24 03:08:41;;;;;;;0.30;0.30;;;7.00;99.90;;;;;;5059477;28;20460;-82
2022/04/24 03:11:07;;;;;;;0.30;0.30;;;6.90;99.90;;;;;;5070984;28;20444;-82
2022/04/24 03:13:32;;;;;;;0.30;0.30;;;6.90;99.90;;;;;;5068378;28;20185;-82
2022/04/24 03:15:58;;;;;;;0.30;0.30;;;6.90;99.90;;;;;;5068432;28;20636;-83
2022/04/24 03:18:23;;;;;;;0.30;0.30;;;6.90;99.90;;;;;;5068458;28;20238;-82
2022/04/24 03:20:49;;;;;;;0.30;0.30;;;6.90;99.90;;;;;;5070940;28;20276;-82
2022/04/24 03:23:15;;;;;;;0.30;0.30;;;6.80;99.90;;;;;;5062136;28;20237;-82
2022/04/24 03:25:40;;;;;;;0.30;0.30;;;6.80;99.90;;;;;;5057033;28;20244;-82
2022/04/24 03:28:08;;;;;;;0.40;0.40;;;6.80;99.90;;;;;;5066843;28;20188;-82
2022/04/24 03:30:35;;;;;;;0.30;0.30;;;6.80;99.90;;;;;;5068026;28;20189;-82
2022/04/24 03:33:00;;;;;;;0.30;0.30;;;6.70;99.90;;;;;;5060052;28;20448;-82
2022/04/24 03:35:26;;;;;;;0.30;0.30;;;6.70;99.90;;;;;;5064932;28;20516;-82
2022/04/24 03:37:52;;;;;;;0.30;0.30;;;6.80;99.90;;;;;;5068280;28;20182;-82
2022/04/24 03:40:19;;;;;;;0.30;0.30;;;6.70;99.90;;;;;;5070962;28;20186;-83
2022/04/24 03:42:45;;;;;;;0.30;0.30;;;6.70;99.90;;;;;;5068228;28;20725;-82
2022/04/24 03:45:11;;;;;;;0.30;0.30;;;6.80;99.90;;;;;;5079956;28;20541;-82
2022/04/24 03:47:37;;;;;;;0.30;0.30;;;6.80;99.90;;;;;;5073438;28;20584;-82
2022/04/24 03:50:04;;;;;;;0.30;0.30;;;6.70;99.90;;;;;;5069474;28;20444;-83
2022/04/24 03:52:30;;;;;;;0.30;0.30;;;6.70;99.90;;;;;;5068741;28;20268;-83
2022/04/24 03:54:55;;;;;;;0.40;0.40;;;6.70;99.90;;;;;;5069073;28;20438;-82
2022/04/24 03:57:21;;;;;;;0.30;0.30;;;6.70;99.90;;;;;;5069894;28;20525;-82
2022/04/24 03:59:47;;;;;;;0.30;0.30;;;6.70;99.90;;;;;;5067898;28;20919;-82
2022/04/24 04:02:12;;;;;;;0.30;0.30;;;6.70;99.90;;;;;;5078725;28;20221;-82
2022/04/24 04:04:38;;;;;;;0.30;0.30;;;6.70;99.90;;;;;;5066958;28;20185;-82
2022/04/24 04:07:04;;;;;;;0.50;0.50;;;6.70;99.90;;;;;;5067929;28;20185;-82
2022/04/24 04:09:30;;;;;;;0.30;0.30;;;6.70;99.90;;;;;;5070580;28;20174;-82
2022/04/24 04:11:56;;;;;;;0.20;0.20;;;6.70;99.90;;;;;;5072401;28;21242;-82
2022/04/24 04:14:21;;;;;;;0.40;0.40;;;6.70;99.90;;;;;;5078253;28;20178;-83
2022/04/24 04:16:48;;;;;;;0.40;0.40;;;6.70;99.90;;;;;;5066264;28;20459;-82
2022/04/24 04:19:13;;;;;;;0.40;0.40;;;6.70;99.90;;;;;;5073076;28;20256;-83
2022/04/24 04:21:39;;;;;;;0.40;0.40;;;6.80;99.90;;;;;;5066112;28;20504;-82
2022/04/24 04:24:05;;;;;;;0.40;0.40;;;6.70;99.90;;;;;;5064251;28;20413;-82
2022/04/24 04:26:30;;;;;;;0.37;0.37;;;6.70;99.90;;;;;;5065538;28;20220;-82
2022/04/24 04:28:57;;;;;;;0.30;0.30;;;6.80;99.90;;;;;;5067148;28;20186;-82
2022/04/24 04:31:22;;;;;;;0.30;0.30;;;6.80;99.90;;;;;;5066550;28;20247;-82
2022/04/24 04:33:48;;;;;;;0.30;0.30;;;6.90;99.90;;;;;;5059103;28;20439;-82
2022/04/24 04:36:13;;;;;;;0.30;0.30;;;7.00;99.90;;;;;;5061627;28;20276;-82
2022/04/24 04:38:39;;;;;;;0.30;0.30;;;7.00;99.90;;;;;;5065788;28;20226;-82
2022/04/24 04:41:04;;;;;;;0.30;0.30;;;7.00;99.90;;;;;;5081375;28;20251;-82
2022/04/24 04:43:30;;;;;;;0.37;0.37;;;7.00;99.90;;;;;;5064189;28;20186;-82
2022/04/24 04:45:56;;;;;;;0.30;0.30;;;7.10;99.90;;;;;;5055635;28;20186;-82
2022/04/24 04:48:22;;;;;;;0.40;0.40;;;7.10;99.90;;;;;;5067286;28;20452;-82
2022/04/24 04:50:47;;;;;;;0.30;0.30;;;7.20;99.90;;;;;;5070155;28;20629;-83
2022/04/24 04:53:13;;;;;;;0.30;0.30;;;7.20;99.90;;;;;;5056644;28;20340;-82
2022/04/24 04:55:38;;;;;;;0.30;0.30;;;7.30;99.90;;;;;;5066558;28;20668;-83
2022/04/24 04:58:04;;;;;;;0.30;0.30;;;7.30;99.90;;;;;;5084738;28;20186;-83
2022/04/24 05:00:30;;;;;;;0.30;0.30;;;7.30;99.90;;;;;;5063428;28;20193;-83
2022/04/24 05:02:55;;;;;;;0.30;0.30;;;7.40;99.90;;;;;;5062822;28;20230;-83
2022/04/24 05:05:21;;;;;;;0.30;0.30;;;7.40;99.90;;;;;;5064154;28;20279;-83
2022/04/24 05:07:47;;;;;;;0.30;0.30;;;7.50;99.90;;;;;;5068534;28;20228;-84
2022/04/24 05:10:13;;;;;;;0.30;0.30;;;7.50;99.90;;;;;;5062199;28;20186;-83
2022/04/24 05:12:38;;;;;;;0.30;0.30;;;7.50;99.90;;;;;;5076548;28;20498;-84
2022/04/24 05:15:10;;;;;;;0.23;0.23;;;7.60;99.90;;;;;;5078208;28;20192;-82
2022/04/24 05:17:36;;;;;;;0.30;0.30;;;7.70;99.90;;;;;;5078702;28;20249;-81
2022/04/24 05:20:06;;;;;;;0.30;0.30;;;7.70;99.90;;;;;;5081474;28;20746;-82
2022/04/24 05:22:32;;;;;;;0.30;0.30;;;7.70;99.90;;;;;;5088644;28;20564;-83
2022/04/24 05:24:58;;;;;;;0.30;0.30;;;7.70;99.90;;;;;;5070782;28;20435;-84
2022/04/24 05:27:24;;;;;;;0.30;0.30;;;7.70;99.90;;;;;;5076405;28;20315;-83
2022/04/24 05:29:49;;;;;;;0.30;0.30;;;7.70;99.90;;;;;;5069416;28;20517;-83
2022/04/24 05:32:15;;;;;;;0.30;0.30;;;7.80;99.90;;;;;;5072428;28;20190;-83
2022/04/24 05:34:41;;;;;;;0.30;0.30;;;7.80;99.90;;;;;;5066752;28;20228;-84
2022/04/24 05:37:07;;;;;;;0.20;0.20;;;7.90;99.90;;;;;;5083176;28;20569;-84
2022/04/24 05:39:32;;;;;;;0.30;0.30;;;8.00;99.90;;;;;;5060872;28;20190;-83
2022/04/24 05:41:58;;;;;;;0.30;0.30;;;8.00;99.90;;;;;;5066807;28;20255;-84
2022/04/24 05:44:24;;;;;;;0.20;0.20;;;8.00;99.90;;;;;;5074591;28;20208;-83
2022/04/24 05:46:50;;;;;;;0.30;0.30;;;8.00;99.90;;;;;;5072431;28;20953;-84
2022/04/24 05:49:15;;;;;;;0.30;0.30;;;8.00;99.90;;;;;;5077355;28;20187;-84
2022/04/24 05:51:42;;;;;;;0.20;0.20;;;8.00;99.90;;;;;;5065015;28;20452;-84
2022/04/24 05:54:08;;;;;;;0.30;0.30;;;8.00;99.90;;;;;;5066314;28;20672;-84
2022/04/24 05:56:33;;;;;;;0.20;0.20;;;8.00;99.90;;;;;;5073857;28;20445;-83
2022/04/24 05:58:59;;;;;;;0.30;0.30;;;8.10;99.90;;;;;;5057671;28;20189;-84
2022/04/24 06:01:25;;;;;;;0.30;0.30;;;8.20;99.90;;;;;;5065342;28;20633;-84
2022/04/24 06:03:50;;;;;;;0.30;0.30;;;8.30;99.90;;;;;;5067415;28;20547;-83
2022/04/24 06:06:16;;;;;;;0.30;0.30;;;8.40;99.90;;;;;;5069300;28;20194;-82
2022/04/24 06:08:43;;;;;;;0.20;0.20;;;8.50;99.90;;;;;;5068032;28;20192;-83
2022/04/24 06:11:09;;;;;;;0.20;0.20;;;8.50;99.90;;;;;;5087430;28;20765;-83
2022/04/24 06:13:34;;;;;;;0.30;0.30;;;8.70;99.90;;;;;;5058125;28;20433;-83
2022/04/24 06:16:00;;;;;;;0.20;0.20;;;8.80;99.90;;;;;;5069896;28;20919;-83
2022/04/24 06:18:27;;;;;;;0.20;0.20;;;9.00;99.90;;;;;;5062820;28;20263;-84
2022/04/24 06:20:52;;;;;;;0.20;0.20;;;9.00;99.90;;;;;;5069300;28;20556;-83
2022/04/24 06:23:19;;;;;;;0.30;0.30;;;9.00;99.90;;;;;;5053619;28;20487;-81
2022/04/24 06:25:44;;;;;;;0.20;0.20;;;9.10;99.90;;;;;;5061613;28;20189;-83
2022/04/24 06:28:10;;;;;;;0.20;0.20;;;9.20;99.90;;;;;;5063311;28;20436;-83
2022/04/24 06:30:40;;;;;;;0.30;0.30;;;9.30;99.90;;;;;;5060654;28;20195;-83
2022/04/24 06:33:11;;;;;;;0.20;0.20;;;9.40;99.90;;;;;;5059389;28;20187;-83
2022/04/24 06:35:37;;;;;;;0.20;0.20;;;9.40;99.90;;;;;;5062463;28;20589;-83
2022/04/24 06:38:04;;;;;;;0.20;0.20;;;9.70;99.90;;;;;;5068793;28;20428;-84
2022/04/24 06:40:30;;;;;;;0.23;0.23;;;9.70;99.90;;;;;;5062917;28;20822;-83
2022/04/24 06:43:04;;;;;;;0.30;0.30;;;9.80;99.90;;;;;;5062151;28;21189;-83
2022/04/24 06:45:29;;;;;;;0.30;0.30;;;9.70;99.90;;;;;;5065926;28;20974;-84
2022/04/24 06:47:57;;;;;;;0.20;0.20;;;9.60;99.90;;;;;;5068392;28;20453;-80
2022/04/24 06:50:24;;;;;;;0.20;0.20;;;9.90;99.90;;;;;;5052664;28;20181;-80
2022/04/24 06:52:59;;;;;;;0.20;0.20;;;10.10;99.90;;;;;;5070491;28;20530;-80
2022/04/24 06:55:26;;;;;;;0.23;0.23;;;10.20;99.90;;;;;;5066749;28;20439;-80
2022/04/24 06:57:51;;;;;;;0.20;0.20;;;10.30;99.90;;;;;;5070586;28;20437;-80
2022/04/24 07:00:19;;;;;;;0.20;0.20;;;10.40;99.90;;;;;;5067517;28;20440;-82
2022/04/24 07:02:45;;;;;;;0.20;0.20;;;10.40;99.90;;;;;;5065657;28;20220;-82
2022/04/24 07:05:11;;;;;;;0.20;0.20;;;10.40;99.90;;;;;;5066799;28;20440;-81
2022/04/24 07:07:36;;;;;;;0.20;0.20;;;10.30;99.90;;;;;;5070348;28;20448;-81
2022/04/24 07:10:02;;;;;;;0.20;0.20;;;10.40;99.90;;;;;;5061432;28;20269;-80
2022/04/24 07:12:27;;;;;;;0.20;0.20;;;10.50;99.90;;;;;;5068477;28;20193;-81
2022/04/24 07:14:53;;;;;;;0.20;0.20;;;10.40;99.90;;;;;;5062755;28;20438;-82
2022/04/24 07:17:18;;;;;;;0.20;0.20;;;10.70;99.90;;;;;;5065156;28;20228;-82
2022/04/24 07:19:44;;;;;;;0.20;0.20;;;10.90;99.90;;;;;;5064505;28;20681;-82
2022/04/24 07:22:10;;;;;;;0.20;0.20;;;10.80;99.90;;;;;;5055680;28;20599;-83
2022/04/24 07:24:35;;;;;;;0.10;0.10;;;10.90;99.90;;;;;;5073522;28;20302;-82
2022/04/24 07:27:01;;;;;;;0.20;0.20;;;10.70;99.90;;;;;;5083389;28;20209;-83
2022/04/24 07:29:26;;;;;;;0.20;0.20;;;11.00;99.90;;;;;;5066264;28;20656;-84
2022/04/24 07:31:53;;;;;;;0.20;0.20;;;11.10;99.90;;;;;;5072978;28;20736;-83
2022/04/24 07:34:18;;;;;;;0.20;0.20;;;11.30;99.90;;;;;;5063005;28;20265;-83
2022/04/24 07:36:44;;;;;;;0.20;0.20;;;11.20;99.90;;;;;;5068017;28;20527;-83
2022/04/24 07:39:10;;;;;;;0.20;0.20;;;11.10;99.90;;;;;;5066460;28;20539;-82
2022/04/24 07:41:36;;;;;;;0.20;0.20;;;11.00;99.90;;;;;;5064517;28;20999;-82
2022/04/24 07:44:02;;;;;;;0.20;0.20;;;10.80;99.90;;;;;;5059821;28;20194;-82
2022/04/24 07:46:28;;;;;;;0.20;0.20;;;10.70;99.90;;;;;;5067568;28;20600;-80
2022/04/24 07:48:53;;;;;;;0.20;0.20;;;10.50;99.90;;;;;;5059758;28;20536;-80
2022/04/24 07:51:19;;;;;;;0.20;0.20;;;10.50;99.90;;;;;;5069051;28;20193;-82
2022/04/24 07:53:44;;;;;;;0.20;0.20;;;10.50;99.90;;;;;;5064739;28;20680;-82
2022/04/24 07:56:10;;;;;;;0.20;0.20;;;10.70;99.90;;;;;;5067396;28;20632;-82
2022/04/24 07:58:36;;;;;;;0.20;0.20;;;10.90;99.90;;;;;;5078808;28;20277;-83
2022/04/24 08:01:01;;;;;;;0.20;0.20;;;11.30;99.90;;;;;;5063275;28;20377;-82
2022/04/24 08:03:27;;;;;;;0.20;0.20;;;11.60;99.90;;;;;;5052423;28;20193;-83
2022/04/24 08:05:52;;;;;;;0.20;0.20;;;11.50;99.90;;;;;;5069464;28;20534;-83
2022/04/24 08:08:20;;;;;;;0.13;0.13;;;11.40;99.90;;;;;;5069328;28;20281;-82
2022/04/24 08:10:51;;;;;;;0.10;0.10;;;11.40;99.90;;;;;;5061890;28;20179;-82
2022/04/24 08:13:18;;;;;;;0.10;0.10;;;11.70;99.90;;;;;;5067387;28;20432;-81
2022/04/24 08:15:44;;;;;;;0.10;0.10;;;11.90;99.90;;;;;;5068215;28;20455;-83
2022/04/24 08:18:12;;;;;;;0.17;0.17;;;12.10;99.90;;;;;;5059917;28;20468;-83
2022/04/24 08:20:39;;;;;;;0.10;0.10;;;12.30;99.90;;;;;;5058898;28;20515;-82
2022/04/24 08:23:05;;;;;;;0.10;0.10;;;12.10;99.90;;;;;;5053401;28;20518;-82
2022/04/24 08:25:35;;;;;;;0.10;0.10;;;11.80;99.90;;;;;;5069784;28;20440;-82
2022/04/24 08:28:04;;;;;;;0.20;0.20;;;11.30;99.90;;;;;;5065686;28;20505;-83
2022/04/24 08:30:30;;;;;;;0.20;0.20;;;11.40;99.90;;;;;;5049754;28;20471;-82
2022/04/24 08:32:56;;;;;;;0.20;0.20;;;11.70;99.90;;;;;;5068284;28;20448;-83
2022/04/24 08:35:21;;;;;;;0.20;0.20;;;11.70;99.90;;;;;;5067039;28;20189;-84
2022/04/24 08:37:48;;;;;;;0.20;0.20;;;11.70;99.90;;;;;;5068274;28;20261;-83
2022/04/24 08:40:18;;;;;;;0.10;0.10;;;11.80;99.90;;;;;;5074112;28;20641;-84
2022/04/24 08:42:44;;;;;;;0.20;0.20;;;11.50;99.90;;;;;;5066309;28;20475;-83
2022/04/24 08:45:13;;;;;;;0.20;0.20;;;11.50;99.90;;;;;;5067138;28;20432;-84
2022/04/24 08:47:40;;;;;;;0.10;0.10;;;11.80;99.90;;;;;;5080318;28;20507;-84
2022/04/24 08:50:07;;;;;;;0.10;0.10;;;11.40;99.90;;;;;;5066836;28;20440;-83
2022/04/24 08:52:32;;;;;;;0.10;0.10;;;11.30;99.90;;;;;;5067358;28;20440;-84
2022/04/24 08:54:59;;;;;;;0.10;0.10;;;11.60;99.90;;;;;;5074491;28;20434;-84
2022/04/24 08:57:30;;;;;;;0.20;0.20;;;11.90;99.90;;;;;;5063038;28;20185;-83
2022/04/24 08:59:56;;;;;;;0.10;0.10;;;11.90;99.90;;;;;;5049288;28;20501;-83
2022/04/24 09:02:23;;;;;;;0.10;0.10;;;12.50;99.90;;;;;;5067959;28;21184;-83
2022/04/24 09:04:49;;;;;;;0.20;0.20;;;12.80;99.90;;;;;;5077269;28;20442;-84
2022/04/24 09:07:18;;;;;;;0.20;0.20;;;13.00;99.90;;;;;;5086090;28;20446;-85
2022/04/24 09:09:48;;;;;;;0.10;0.10;;;13.00;99.90;;;;;;5066771;28;20436;-82
2022/04/24 09:12:22;;;;;;;0.10;0.10;;;12.90;99.90;;;;;;5066415;28;20462;-83
2022/04/24 09:14:48;;;;;;;0.10;0.10;;;12.70;99.90;;;;;;5064659;28;20451;-83
2022/04/24 09:17:22;;;;;;;0.10;0.10;;;12.40;99.90;;;;;;5067037;28;21197;-84
2022/04/24 09:19:48;;;;;;;0.10;0.10;;;12.20;99.90;;;;;;5053545;28;20533;-84
2022/04/24 09:22:14;;;;;;;0.10;0.10;;;12.80;99.90;;;;;;5075748;28;20470;-84
2022/04/24 09:24:49;;;;;;;0.10;0.10;;;13.30;99.90;;;;;;5068842;28;20518;-83
2022/04/24 09:27:27;;;;;;;0.10;0.10;;;13.70;99.90;;;;;;5066344;28;20177;-83
2022/04/24 09:30:05;;;;;;;0.10;0.10;;;14.10;99.90;;;;;;5075213;28;20486;-83
2022/04/24 09:32:36;;;;;;;0.10;0.10;;;14.00;99.90;;;;;;5074236;28;20467;-82
2022/04/24 09:35:02;;;;;;;0.10;0.10;;;14.60;99.90;;;;;;5077696;28;20443;-84
2022/04/24 09:37:39;;;;;;;0.10;0.10;;;13.90;99.90;;;;;;5073745;28;20434;-84
2022/04/24 09:40:05;;;;;;;0.10;0.10;;;14.30;99.90;;;;;;5068333;28;20440;-83
2022/04/24 09:42:31;;;;;;;0.10;0.10;;;14.80;99.90;;;;;;5064204;28;20582;-84
2022/04/24 09:44:56;;;;;;;0.10;0.10;;;14.70;99.90;;;;;;5062232;28;20551;-83
2022/04/24 09:47:26;;;;;;;0.10;0.10;;;14.00;99.90;;;;;;5064806;28;20190;-84
2022/04/24 09:49:53;;;;;;;0.10;0.10;;;13.70;99.90;;;;;;5052510;28;20190;-85
2022/04/24 09:52:27;;;;;;;0.10;0.10;;;13.60;99.90;;;;;;5060136;28;20965;-84
2022/04/24 09:54:55;;;;;;;0.10;0.10;;;13.70;99.90;;;;;;5059195;28;20970;-84
2022/04/24 09:57:24;;;;;;;0.10;0.10;;;14.30;99.90;;;;;;5066171;28;20559;-83
2022/04/24 09:59:53;;;;;;;0.10;0.10;;;14.30;99.90;;;;;;5065960;28;20467;-83
2022/04/24 10:02:21;;;;;;;0.10;0.10;;;13.90;99.90;;;;;;5073957;28;20483;-84
2022/04/24 10:04:48;;;;;;;0.10;0.10;;;13.50;99.90;;;;;;5054892;28;20811;-84
2022/04/24 10:07:16;;;;;;;0.10;0.10;;;13.10;99.90;;;;;;5069710;28;20499;-82
2022/04/24 10:09:43;;;;;;;0.10;0.10;;;12.90;99.90;;;;;;5068730;28;20439;-84
2022/04/24 10:12:16;;;;;;;0.10;0.10;;;12.80;99.90;;;;;;5063064;28;20522;-84
2022/04/24 10:14:49;;;;;;;0.00;0.00;;;13.00;99.90;;;;;;5068772;28;20449;-83
2022/04/24 10:17:33;;;;;;;0.00;0.00;;;13.20;99.90;;;;;;5073035;28;20470;-83
2022/04/24 10:20:21;;;;;;;0.00;0.00;;;13.30;99.90;;;;;;5053998;28;20853;-83
2022/04/24 10:22:49;;;;;;;0.10;0.10;;;13.20;99.90;;;;;;5087681;28;20478;-84
2022/04/24 10:25:15;;;;;;;0.10;0.10;;;13.70;99.90;;;;;;5066435;28;20463;-82
2022/04/24 10:27:46;;;;;;;0.10;0.10;;;13.60;99.90;;;;;;5069054;28;20931;-82
2022/04/24 10:30:22;;;;;;;0.10;0.10;;;13.30;99.90;;;;;;5068274;28;20436;-83
2022/04/24 10:32:48;;;;;;;0.10;0.10;;;13.20;99.90;;;;;;5072218;28;20483;-83
2022/04/24 10:35:20;;;;;;;0.10;0.10;;;13.10;99.90;;;;;;5065928;28;20431;-81
2022/04/24 10:37:51;;;;;;;0.10;0.10;;;12.80;99.90;;;;;;5055643;28;20433;-81
2022/04/24 10:40:19;;;;;;;0.10;0.10;;;12.30;99.90;;;;;;5065490;28;20436;-83
2022/04/24 10:42:46;;;;;;;0.10;0.10;;;13.20;99.90;;;;;;5091299;28;20958;-83
2022/04/24 10:45:15;;;;;;;0.10;0.10;;;14.10;99.90;;;;;;5071540;28;20439;-85
2022/04/24 10:47:42;;;;;;;0.10;0.10;;;13.90;99.90;;;;;;5072201;28;20451;-82
2022/04/24 10:50:09;;;;;;;0.10;0.10;;;14.10;99.90;;;;;;5067778;28;20463;-85
2022/04/24 10:52:43;;;;;;;0.10;0.10;;;13.30;99.90;;;;;;5071331;28;20443;-86
2022/04/24 10:55:14;;;;;;;0.10;0.10;;;12.70;99.90;;;;;;5063732;28;20527;-85
2022/04/24 10:57:45;;;;;;;0.10;0.10;;;12.60;99.90;;;;;;5070431;28;20509;-85
2022/04/24 11:00:27;;;;;;;0.10;0.10;;;12.70;99.90;;;;;;5067252;28;20440;-83
2022/04/24 11:03:03;;;;;;;0.10;0.10;;;13.10;99.90;;;;;;5067701;28;20483;-84
2022/04/24 11:05:36;;;;;;;0.10;0.10;;;13.50;99.90;;;;;;5061838;28;20454;-83
2022/04/24 11:08:03;;;;;;;0.10;0.10;;;13.70;99.90;;;;;;5063470;28;20443;-83
2022/04/24 11:10:29;;;;;;;0.10;0.10;;;13.90;99.90;;;;;;5074753;28;20440;-84
2022/04/24 11:12:56;;;;;;;0.10;0.10;;;13.80;99.90;;;;;;5074556;28;20444;-84
2022/04/24 11:15:21;;;;;;;0.10;0.10;;;13.30;99.90;;;;;;5063769;28;20208;-83
2022/04/24 11:17:47;;;;;;;0.10;0.10;;;13.00;99.90;;;;;;5069869;28;20991;-83
2022/04/24 11:20:16;;;;;;;0.10;0.10;;;13.20;99.90;;;;;;5068480;28;20278;-83
2022/04/24 11:22:50;;;;;;;0.10;0.10;;;13.10;99.90;;;;;;5072480;28;20482;-83
2022/04/24 11:25:17;;;;;;;0.10;0.10;;;12.80;99.90;;;;;;5065076;28;21038;-82
2022/04/24 11:27:51;;;;;;;0.10;0.10;;;12.40;99.90;;;;;;5068539;28;20465;-82
2022/04/24 11:30:22;;;;;;;0.10;0.10;;;12.20;99.90;;;;;;5067188;28;20460;-83
2022/04/24 11:33:07;;;;;;;0.10;0.10;;;12.30;99.90;;;;;;5081778;28;20547;-84
2022/04/24 11:35:36;;;;;;;0.20;0.20;;;12.10;99.90;;;;;;5073093;28;20440;-83
2022/04/24 11:38:03;;;;;;;0.10;0.10;;;12.00;99.90;;;;;;5069081;28;20443;-80
2022/04/24 11:40:30;;;;;;;0.20;0.20;;;12.10;99.90;;;;;;5066905;28;20442;-82
2022/04/24 11:43:06;;;;;;;0.10;0.10;;;11.60;99.90;;;;;;5069948;28;20541;-82
2022/04/24 11:51:18;;;;;;;0.13;0.13;;;12.20;99.90;;;;;;5073633;28;20486;-83
2022/04/24 11:53:45;;;;;;;0.10;0.10;;;12.20;99.90;;;;;;5065499;28;20428;-82
2022/04/24 11:56:12;;;;;;;0.20;0.20;;;12.30;99.90;;;;;;5068537;28;20451;-81
2022/04/24 11:58:40;;;;;;;0.10;0.10;;;12.40;99.90;;;;;;5063436;28;20456;-83
2022/04/24 12:01:08;;;;;;;0.10;0.10;;;12.60;99.90;;;;;;5064120;28;21010;-84
2022/04/24 12:03:36;;;;;;;0.10;0.10;;;12.70;99.90;;;;;;5070965;28;20482;-84
2022/04/24 12:06:07;;;;;;;0.10;0.10;;;12.40;99.90;;;;;;5067151;28;20494;-85
2022/04/24 12:08:40;;;;;;;0.10;0.10;;;12.40;99.90;;;;;;5068016;28;20462;-83
2022/04/24 12:11:06;;;;;;;0.10;0.10;;;12.60;99.90;;;;;;5060830;28;20447;-84
2022/04/24 12:13:32;;;;;;;0.10;0.10;;;12.90;99.90;;;;;;5075748;28;20435;-83
2022/04/24 12:15:57;;;;;;;0.20;0.20;;;12.80;99.90;;;;;;5066359;28;20502;-83
2022/04/24 12:18:24;;;;;;;0.10;0.10;;;12.90;99.90;;;;;;5072386;28;20480;-83
2022/04/24 12:20:50;;;;;;;0.10;0.10;;;13.30;99.90;;;;;;5067912;28;20189;-84
2022/04/24 12:23:19;;;;;;;0.10;0.10;;;13.60;99.90;;;;;;5067716;28;20483;-82
2022/04/24 12:25:49;;;;;;;0.10;0.10;;;13.10;99.90;;;;;;5066158;28;20517;-82
2022/04/24 12:28:34;;;;;;;0.10;0.10;;;12.60;99.90;;;;;;5064322;28;20996;-81
2022/04/24 12:31:02;;;;;;;0.10;0.10;;;12.40;99.90;;;;;;5064497;28;21008;-81
2022/04/24 12:33:29;;;;;;;0.10;0.10;;;12.40;99.90;;;;;;5065463;28;20440;-81
2022/04/24 12:35:55;;;;;;;0.10;0.10;;;12.40;99.90;;;;;;5055263;28;20566;-82
2022/04/24 12:38:22;;;;;;;0.10;0.10;;;12.50;99.90;;;;;;5071397;28;20909;-83
2022/04/24 12:40:57;;;;;;;0.20;0.20;;;12.40;99.90;;;;;;5069126;28;20436;-82
2022/04/24 12:43:28;;;;;;;0.10;0.10;;;12.30;99.90;;;;;;5064225;28;20864;-81
2022/04/24 12:45:57;;;;;;;0.10;0.10;;;12.40;99.90;;;;;;5067976;28;20454;-81
2022/04/24 12:48:23;;;;;;;0.10;0.10;;;12.60;99.90;;;;;;5068651;28;20439;-82
2022/04/24 12:50:51;;;;;;;0.10;0.10;;;12.60;99.90;;;;;;5068423;28;20443;-80
2022/04/24 12:53:18;;;;;;;0.10;0.10;;;12.30;99.90;;;;;;5067053;28;20950;-82
2022/04/24 12:55:45;;;;;;;0.10;0.10;;;12.40;99.90;;;;;;5067001;28;20436;-85
2022/04/24 12:58:14;;;;;;;0.10;0.10;;;12.30;99.90;;;;;;5071468;28;20994;-83